Time;durP1;ratioP1;P1;durP2;ratioP2;P2;SDS_P1;SDS_P2;PMS_P1;PMS_P2;Temp;Humidity;BMP_temperature;BMP_pressure;BME280_temperature;BME280_humidity;BME280_pressure;Samples;Min_cycle;Max_cycle;Signal;HPM_P1;HPM_P2
2021/12/27 00:00:53;;;;;;;67.67;36.67;;;;;;;7.16;88.54;94470.38;5092809;28;20460;-81
2021/12/27 00:03:21;;;;;;;67.53;35.50;;;;;;;7.14;89.02;94477.47;5092817;28;20446;-81
2021/12/27 00:05:48;;;;;;;62.37;34.43;;;;;;;7.14;88.65;94474.88;5092915;28;20445;-81
2021/12/27 00:08:17;;;;;;;57.70;33.40;;;;;;;7.20;88.95;94477.00;5092481;28;20456;-81
2021/12/27 00:10:44;;;;;;;54.70;29.80;;;;;;;7.26;88.72;94483.53;5092531;28;20851;-81
2021/12/27 00:13:11;;;;;;;39.93;25.40;;;;;;;7.33;88.53;94479.50;5057154;28;20474;-81
2021/12/27 00:15:39;;;;;;;44.07;23.77;;;;;;;7.41;87.99;94474.50;5092966;28;20545;-81
2021/12/27 00:18:06;;;;;;;45.80;26.10;;;;;;;7.46;87.06;94478.38;5057068;28;20811;-81
2021/12/27 00:20:35;;;;;;;44.43;24.67;;;;;;;7.44;86.92;94476.84;5093230;28;21086;-81
2021/12/27 00:23:01;;;;;;;40.73;25.43;;;;;;;7.47;87.04;94469.59;5096059;28;20445;-81
2021/12/27 00:25:29;;;;;;;34.70;23.17;;;;;;;7.50;86.87;94476.38;5095932;28;20462;-81
2021/12/27 00:27:56;;;;;;;42.77;23.53;;;;;;;7.51;86.26;94469.38;5095848;28;20450;-81
2021/12/27 00:30:24;;;;;;;38.57;24.50;;;;;;;7.46;86.57;94462.72;5096132;28;20484;-81
2021/12/27 00:32:51;;;;;;;44.23;25.37;;;;;;;7.46;86.63;94467.94;5043631;28;20453;-81
2021/12/27 00:35:22;;;;;;;35.80;24.70;;;;;;;7.48;86.23;94462.59;5096333;28;21005;-81
2021/12/27 00:37:50;;;;;;;40.43;24.83;;;;;;;7.47;86.27;94456.56;5096430;28;20446;-81
2021/12/27 00:40:17;;;;;;;44.97;25.60;;;;;;;7.34;86.44;94457.66;5096307;28;20445;-81
2021/12/27 00:42:44;;;;;;;58.37;34.87;;;;;;;7.35;86.58;94469.75;5095994;28;20446;-80
2021/12/27 00:45:12;;;;;;;74.87;41.37;;;;;;;7.25;87.42;94469.66;5096038;28;20433;-81
2021/12/27 00:47:40;;;;;;;73.07;44.17;;;;;;;7.25;87.78;94461.00;5096162;28;20802;-81
2021/12/27 00:50:08;;;;;;;59.67;35.00;;;;;;;7.16;87.29;94478.19;5095716;28;20490;-81
2021/12/27 00:52:35;;;;;;;60.90;36.70;;;;;;;7.11;88.07;94464.69;5095659;28;20459;-81
2021/12/27 00:55:05;;;;;;;58.40;37.57;;;;;;;7.10;88.40;94455.19;5042585;28;20481;-81
2021/12/27 00:57:32;;;;;;;57.40;34.03;;;;;;;7.11;88.39;94470.72;5095380;28;20525;-81
2021/12/27 00:59:59;;;;;;;49.17;32.00;;;;;;;7.14;88.07;94467.03;5095312;28;20451;-81
2021/12/27 01:02:26;;;;;;;59.63;34.40;;;;;;;7.10;88.74;94465.63;5095202;28;20450;-81
2021/12/27 01:04:53;;;;;;;52.83;29.80;;;;;;;7.08;89.19;94463.16;5094933;28;20423;-82
2021/12/27 01:07:20;;;;;;;53.20;31.93;;;;;;;7.12;88.31;94480.22;5095229;28;20448;-82
2021/12/27 01:10:01;;;;;;;43.10;25.83;;;;;;;7.12;88.48;94463.72;5059312;28;20442;-81
2021/12/27 01:12:34;;;;;;;37.13;25.87;;;;;;;6.99;88.67;94469.09;5095117;28;20491;-81
2021/12/27 01:15:10;;;;;;;48.43;28.97;;;;;;;7.05;88.25;94467.78;5094762;28;20446;-81
2021/12/27 01:17:39;;;;;;;50.60;28.80;;;;;;;7.10;88.82;94476.06;5094846;28;20441;-81
2021/12/27 01:20:10;;;;;;;56.80;29.97;;;;;;;6.77;89.39;94459.47;5094994;28;20528;-81
2021/12/27 01:22:37;;;;;;;40.53;27.77;;;;;;;6.79;90.22;94488.03;5094827;28;20529;-81
2021/12/27 01:25:06;;;;;;;50.13;27.77;;;;;;;6.56;91.41;94442.84;5094535;28;20464;-80
2021/12/27 01:27:35;;;;;;;43.40;26.77;;;;;;;6.53;92.30;94467.38;5094663;28;20446;-80
2021/12/27 01:30:02;;;;;;;38.00;24.37;;;;;;;6.52;92.65;94438.81;5094756;28;20502;-81
2021/12/27 01:32:30;;;;;;;52.40;25.77;;;;;;;6.61;93.45;94453.75;5093792;28;20445;-81
2021/12/27 01:34:57;;;;;;;38.43;22.97;;;;;;;6.73;93.05;94425.94;5094743;28;20500;-81
2021/12/27 01:37:24;;;;;;;31.20;19.40;;;;;;;6.63;92.10;94440.59;5094305;28;20544;-81
2021/12/27 01:39:51;;;;;;;33.77;21.90;;;;;;;6.48;92.42;94422.59;5094446;28;20446;-81
2021/12/27 01:42:18;;;;;;;37.00;23.03;;;;;;;6.54;92.99;94442.16;5094233;28;20445;-81
2021/12/27 01:44:46;;;;;;;27.50;20.40;;;;;;;6.58;92.77;94447.94;5058853;28;20442;-81
2021/12/27 01:47:13;;;;;;;35.47;22.60;;;;;;;6.25;93.28;94433.94;5094164;28;20448;-81
2021/12/27 01:49:40;;;;;;;35.40;22.03;;;;;;;6.37;94.28;94442.63;5094570;28;20440;-81
2021/12/27 01:52:07;;;;;;;32.40;20.63;;;;;;;6.50;93.72;94444.16;5094348;28;20489;-81
2021/12/27 01:54:34;;;;;;;49.17;25.63;;;;;;;6.58;93.25;94432.31;5093850;28;20471;-81
2021/12/27 01:57:02;;;;;;;37.20;24.00;;;;;;;6.66;92.98;94441.22;5094270;28;20446;-81
2021/12/27 01:59:29;;;;;;;38.90;25.03;;;;;;;6.69;92.93;94433.16;5094019;28;20989;-81
2021/12/27 02:01:57;;;;;;;41.40;25.97;;;;;;;6.86;92.68;94437.06;5094430;28;20820;-81
2021/12/27 02:04:24;;;;;;;34.33;22.80;;;;;;;6.96;92.51;94442.41;5094399;28;20525;-81
2021/12/27 02:06:51;;;;;;;31.90;22.30;;;;;;;7.08;91.39;94436.22;5094410;28;20438;-82
2021/12/27 02:09:21;;;;;;;35.90;21.53;;;;;;;7.19;90.63;94433.59;5093583;28;20449;-82
2021/12/27 02:11:50;;;;;;;28.93;20.27;;;;;;;7.30;90.03;94430.97;5093877;28;20838;-82
2021/12/27 02:14:17;;;;;;;30.00;21.60;;;;;;;7.38;89.60;94431.19;5093678;28;20971;-82
2021/12/27 02:16:44;;;;;;;30.57;21.50;;;;;;;7.31;89.16;94424.81;5093950;28;20439;-81
2021/12/27 02:19:12;;;;;;;29.90;21.53;;;;;;;7.24;89.79;94420.22;5093780;28;20448;-81
2021/12/27 02:21:41;;;;;;;31.70;20.63;;;;;;;7.31;89.70;94426.59;5093578;28;20540;-82
2021/12/27 02:24:08;;;;;;;33.30;21.83;;;;;;;7.36;89.99;94422.66;5093680;28;21068;-81
2021/12/27 02:26:35;;;;;;;41.40;24.07;;;;;;;7.38;89.26;94423.38;5058663;28;20469;-81
2021/12/27 02:29:02;;;;;;;34.50;24.33;;;;;;;7.42;89.12;94424.78;5093438;28;20454;-82
2021/12/27 02:31:30;;;;;;;44.07;26.10;;;;;;;7.46;89.04;94410.53;5094362;28;20485;-81
2021/12/27 02:33:57;;;;;;;48.57;26.50;;;;;;;7.51;88.69;94409.31;5094803;28;20556;-81
2021/12/27 02:36:24;;;;;;;31.23;23.60;;;;;;;7.54;88.60;94409.09;5041908;28;20786;-81
2021/12/27 02:38:52;;;;;;;34.30;23.20;;;;;;;7.46;88.61;94405.31;5093942;28;20452;-81
2021/12/27 02:41:19;;;;;;;38.20;24.23;;;;;;;7.53;88.43;94407.44;5093928;28;20438;-81
2021/12/27 02:43:46;;;;;;;32.27;23.37;;;;;;;7.56;88.42;94405.41;5093151;28;20474;-82
2021/12/27 02:46:15;;;;;;;44.13;24.63;;;;;;;7.61;88.40;94402.41;5093121;28;20453;-81
2021/12/27 02:48:46;;;;;;;33.70;23.70;;;;;;;7.65;87.77;94396.00;5093484;28;20538;-82
2021/12/27 02:51:15;;;;;;;40.80;23.87;;;;;;;7.47;88.25;94400.91;5093730;28;20472;-81
2021/12/27 02:53:44;;;;;;;34.20;25.07;;;;;;;7.45;89.09;94398.41;5094024;28;20466;-81
2021/12/27 02:56:12;;;;;;;31.83;23.40;;;;;;;7.42;88.97;94395.22;5042083;28;20509;-82
2021/12/27 02:58:40;;;;;;;37.97;23.17;;;;;;;7.37;88.77;94394.78;5093560;28;20862;-81
2021/12/27 03:01:09;;;;;;;36.60;24.27;;;;;;;7.43;88.59;94400.34;5093489;28;20940;-82
2021/12/27 03:03:37;;;;;;;31.97;22.30;;;;;;;7.45;88.88;94406.25;5058346;28;20444;-82
2021/12/27 03:06:04;;;;;;;32.23;22.90;;;;;;;7.52;88.36;94398.78;5093871;28;20445;-81
2021/12/27 03:08:32;;;;;;;37.07;22.73;;;;;;;7.53;88.28;94392.59;5041544;28;20450;-81
2021/12/27 03:11:00;;;;;;;39.50;23.87;;;;;;;7.53;88.42;94389.16;5093916;28;20482;-81
2021/12/27 03:13:31;;;;;;;40.67;24.90;;;;;;;7.45;88.78;94398.41;5093437;28;21043;-82
2021/12/27 03:15:59;;;;;;;40.80;22.87;;;;;;;7.47;88.91;94385.25;5094207;28;20450;-81
2021/12/27 03:18:27;;;;;;;41.10;25.43;;;;;;;7.49;88.73;94379.91;5094873;28;20447;-81
2021/12/27 03:20:55;;;;;;;53.27;31.17;;;;;;;7.37;89.19;94382.56;5094950;28;20519;-81
2021/12/27 03:23:22;;;;;;;42.70;26.53;;;;;;;7.43;89.80;94383.84;5092993;28;20985;-82
2021/12/27 03:25:50;;;;;;;32.47;22.40;;;;;;;7.40;89.10;94384.09;5093474;28;20446;-81
2021/12/27 03:28:17;;;;;;;25.10;17.37;;;;;;;7.32;89.80;94383.88;5093237;28;20470;-82
2021/12/27 03:30:47;;;;;;;28.77;17.10;;;;;;;7.36;90.62;94386.13;5093840;28;20851;-81
2021/12/27 03:33:15;;;;;;;25.17;18.10;;;;;;;7.41;90.14;94389.19;5093614;28;20442;-82
2021/12/27 03:35:51;;;;;;;22.70;17.50;;;;;;;7.40;90.02;94381.47;5093613;28;20437;-81
2021/12/27 03:38:19;;;;;;;22.33;16.67;;;;;;;7.50;90.16;94381.56;5093628;28;20446;-81
2021/12/27 03:40:48;;;;;;;22.53;17.10;;;;;;;7.56;89.49;94379.31;5093137;28;20457;-80
2021/12/27 03:43:15;;;;;;;24.30;17.77;;;;;;;7.64;89.36;94365.63;5092876;28;20438;-81
2021/12/27 03:45:45;;;;;;;32.33;21.23;;;;;;;7.74;88.94;94361.28;5093139;28;20538;-81
2021/12/27 03:48:12;;;;;;;36.13;21.10;;;;;;;7.82;88.33;94366.72;5093204;28;20454;-81
2021/12/27 03:50:39;;;;;;;30.40;19.30;;;;;;;7.70;88.04;94375.56;5093145;28;20442;-81
2021/12/27 03:53:07;;;;;;;36.83;21.10;;;;;;;7.52;88.56;94369.22;5093838;28;20498;-81
2021/12/27 03:55:35;;;;;;;30.97;22.00;;;;;;;7.59;88.41;94367.78;5093599;28;20464;-82
2021/12/27 03:58:08;;;;;;;27.93;18.53;;;;;;;7.63;88.63;94375.22;5096940;28;20453;-81
2021/12/27 04:00:47;;;;;;;30.97;21.50;;;;;;;7.68;88.98;94359.19;5096507;28;20445;-81
2021/12/27 04:03:17;;;;;;;32.37;21.03;;;;;;;7.78;87.80;94363.50;5096315;28;20449;-81
2021/12/27 04:05:45;;;;;;;31.90;20.53;;;;;;;7.67;87.89;94363.56;5096494;28;20449;-81
2021/12/27 04:08:12;;;;;;;34.07;21.90;;;;;;;7.34;89.57;94353.28;5096172;28;20449;-82
2021/12/27 04:10:41;;;;;;;34.37;20.47;;;;;;;7.45;89.59;94350.59;5096159;28;20451;-81
2021/12/27 04:13:09;;;;;;;27.87;20.60;;;;;;;7.53;89.09;94352.63;5096333;28;20476;-81
2021/12/27 04:15:36;;;;;;;28.70;19.53;;;;;;;7.61;89.06;94355.44;5096238;28;20449;-81
2021/12/27 04:18:04;;;;;;;31.40;19.43;;;;;;;7.62;88.36;94354.47;5096298;28;20799;-81
2021/12/27 04:20:33;;;;;;;28.57;20.70;;;;;;;7.69;88.65;94361.66;5096042;28;20925;-81
2021/12/27 04:23:00;;;;;;;28.07;20.10;;;;;;;7.75;88.16;94368.16;5060859;28;20444;-81
2021/12/27 04:25:27;;;;;;;30.80;19.30;;;;;;;7.78;88.33;94365.28;5095945;28;20455;-81
2021/12/27 04:27:54;;;;;;;47.33;28.20;;;;;;;7.74;87.86;94369.13;5096385;28;20447;-81
2021/12/27 04:30:22;;;;;;;41.40;25.17;;;;;;;7.61;88.61;94374.53;5096054;28;20443;-81
2021/12/27 04:32:50;;;;;;;36.87;23.53;;;;;;;7.38;89.69;94379.00;5095410;28;21023;-81
2021/12/27 04:35:17;;;;;;;29.07;20.10;;;;;;;7.28;90.79;94375.47;5060524;28;20476;-81
2021/12/27 04:37:46;;;;;;;26.10;18.30;;;;;;;7.23;91.66;94371.56;5095730;28;20438;-84
2021/12/27 04:40:15;;;;;;;25.00;17.03;;;;;;;7.24;92.08;94378.47;5095956;28;20518;-82
2021/12/27 04:42:47;;;;;;;32.67;18.43;;;;;;;7.26;92.20;94369.56;5095697;28;20442;-81
2021/12/27 04:45:15;;;;;;;32.43;20.73;;;;;;;7.33;92.94;94368.09;5096254;28;20445;-81
2021/12/27 04:47:42;;;;;;;26.47;18.57;;;;;;;7.44;93.04;94375.88;5096416;28;20543;-80
2021/12/27 04:50:09;;;;;;;27.60;17.63;;;;;;;7.54;91.51;94378.59;5096172;28;20815;-80
2021/12/27 04:52:36;;;;;;;24.37;15.87;;;;;;;7.49;91.61;94378.13;5096091;28;20495;-79
2021/12/27 04:55:05;;;;;;;38.37;21.70;;;;;;;7.45;91.73;94382.75;5044703;28;20975;-80
2021/12/27 04:57:32;;;;;;;50.97;28.67;;;;;;;7.58;90.82;94376.56;5096917;28;20443;-80
2021/12/27 04:59:59;;;;;;;38.20;26.67;;;;;;;7.55;90.17;94379.44;5096391;28;20442;-80
2021/12/27 05:02:26;;;;;;;35.33;28.83;;;;;;;7.21;91.97;94389.94;5096296;28;20446;-79
2021/12/27 05:04:54;;;;;;;37.33;28.43;;;;;;;7.23;92.16;94398.50;5096889;28;20935;-79
2021/12/27 05:07:21;;;;;;;25.13;18.83;;;;;;;6.77;94.05;94396.91;5095259;28;20456;-79
2021/12/27 05:09:48;;;;;;;31.07;21.43;;;;;;;6.97;93.62;94399.72;5096480;28;20461;-79
2021/12/27 05:12:16;;;;;;;32.93;20.37;;;;;;;7.11;92.24;94402.91;5096080;28;21066;-79
2021/12/27 05:14:43;;;;;;;23.97;16.20;;;;;;;7.17;91.79;94401.56;5096031;28;20447;-79
2021/12/27 05:17:10;;;;;;;29.30;18.07;;;;;;;7.21;91.70;94397.78;5044500;28;20453;-79
2021/12/27 05:19:36;;;;;;;28.33;15.83;;;;;;;7.17;92.70;94380.69;5096451;28;20437;-80
2021/12/27 05:22:04;;;;;;;28.20;19.73;;;;;;;7.27;91.52;94388.66;5044252;28;20446;-79
2021/12/27 05:24:31;;;;;;;25.80;17.53;;;;;;;7.37;91.67;94381.72;5096328;28;20484;-79
2021/12/27 05:26:58;;;;;;;23.03;16.50;;;;;;;7.46;91.21;94383.59;5096656;28;20443;-80
2021/12/27 05:29:26;;;;;;;24.43;16.23;;;;;;;7.46;90.48;94379.19;5096399;28;20485;-80
2021/12/27 05:31:53;;;;;;;22.90;16.30;;;;;;;7.51;90.58;94376.22;5096161;28;20468;-80
2021/12/27 05:34:20;;;;;;;24.90;18.53;;;;;;;7.55;90.27;94382.03;5096121;28;20446;-80
2021/12/27 05:36:47;;;;;;;31.20;21.10;;;;;;;7.60;89.97;94388.53;5095846;28;20447;-80
2021/12/27 05:39:16;;;;;;;30.53;19.87;;;;;;;7.66;89.75;94389.81;5096069;28;20453;-80
2021/12/27 05:41:43;;;;;;;28.37;20.50;;;;;;;7.66;89.62;94389.81;5095749;28;20433;-80
2021/12/27 05:44:10;;;;;;;28.97;20.53;;;;;;;7.72;89.46;94399.75;5095184;28;20434;-81
2021/12/27 05:46:39;;;;;;;31.00;20.20;;;;;;;7.76;89.08;94390.72;5095735;28;20487;-80
2021/12/27 05:49:05;;;;;;;27.17;21.80;;;;;;;7.24;91.11;94388.91;5095476;28;20555;-83
2021/12/27 05:51:33;;;;;;;39.63;23.83;;;;;;;7.44;90.17;94390.72;5095216;28;20447;-82
2021/12/27 05:54:00;;;;;;;32.60;20.43;;;;;;;7.50;90.55;94384.16;5095587;28;20517;-80
2021/12/27 05:56:27;;;;;;;37.43;20.93;;;;;;;7.55;90.12;94395.91;5095753;28;20473;-78
2021/12/27 05:58:54;;;;;;;24.87;17.90;;;;;;;7.55;90.14;94395.09;5095654;28;20438;-79
2021/12/27 06:01:21;;;;;;;22.40;17.40;;;;;;;7.55;89.50;94389.88;5095694;28;20799;-79
2021/12/27 06:03:49;;;;;;;31.23;19.37;;;;;;;7.55;89.63;94392.47;5095536;28;20960;-80
2021/12/27 06:06:17;;;;;;;24.03;16.83;;;;;;;7.56;89.66;94389.75;5095296;28;20432;-80
2021/12/27 06:08:43;;;;;;;29.10;20.80;;;;;;;7.60;89.35;94390.31;5095049;28;20434;-80
2021/12/27 06:11:10;;;;;;;25.90;18.37;;;;;;;7.62;89.30;94383.19;5095053;28;20428;-79
2021/12/27 06:13:37;;;;;;;36.53;18.10;;;;;;;7.66;88.73;94369.75;5094832;28;20475;-80
2021/12/27 06:16:05;;;;;;;27.33;19.33;;;;;;;7.68;89.03;94377.47;5095202;28;20447;-78
2021/12/27 06:18:32;;;;;;;46.80;29.30;;;;;;;7.58;89.50;94366.13;5042607;28;20439;-79
2021/12/27 06:21:00;;;;;;;45.60;29.23;;;;;;;7.43;90.05;94376.84;5095276;28;20454;-79
2021/12/27 06:23:27;;;;;;;42.03;28.60;;;;;;;7.40;90.66;94368.44;5095196;28;20448;-78
2021/12/27 06:25:54;;;;;;;51.13;34.20;;;;;;;7.45;90.86;94361.88;5094519;28;20784;-78
2021/12/27 06:28:21;;;;;;;80.47;44.70;;;;;;;7.53;91.39;94368.28;5095233;28;20200;-77
2021/12/27 06:30:48;;;;;;;60.43;36.83;;;;;;;7.51;90.89;94368.38;5095372;28;20498;-77
2021/12/27 06:33:15;;;;;;;61.50;42.40;;;;;;;7.55;91.10;94388.09;5094891;28;20476;-80
2021/12/27 06:35:42;;;;;;;52.67;32.93;;;;;;;7.59;91.04;94380.84;5094969;28;20426;-77
2021/12/27 06:38:10;;;;;;;30.80;22.40;;;;;;;7.57;90.63;94387.97;5094667;28;20428;-79
2021/12/27 06:40:37;;;;;;;34.10;21.43;;;;;;;7.54;91.25;94378.59;5043041;28;20980;-80
2021/12/27 06:43:04;;;;;;;27.03;18.40;;;;;;;7.54;91.07;94375.16;5094482;28;20436;-80
2021/12/27 06:45:31;;;;;;;31.83;20.37;;;;;;;7.63;91.47;94348.28;5094622;28;20515;-78
2021/12/27 06:47:58;;;;;;;27.77;20.73;;;;;;;7.60;91.48;94354.59;5094832;28;20454;-78
2021/12/27 06:50:25;;;;;;;35.53;24.40;;;;;;;7.53;91.70;94352.63;5094824;28;20432;-78
2021/12/27 06:52:51;;;;;;;31.63;22.73;;;;;;;7.62;91.59;94337.03;5094508;28;20482;-78
2021/12/27 06:55:20;;;;;;;37.20;28.50;;;;;;;7.77;91.30;94334.91;5094884;28;20878;-78
2021/12/27 06:57:47;;;;;;;43.27;26.20;;;;;;;7.88;90.73;94341.88;5094691;28;20445;-78
2021/12/27 07:00:15;;;;;;;42.30;27.20;;;;;;;7.97;90.59;94347.16;5094942;28;20796;-78
2021/12/27 07:02:42;;;;;;;36.60;22.80;;;;;;;8.07;91.05;94349.81;5094088;28;20459;-78
2021/12/27 07:05:10;;;;;;;31.67;24.50;;;;;;;8.21;89.63;94346.06;5058768;28;20442;-79
2021/12/27 07:07:37;;;;;;;42.50;30.30;;;;;;;8.23;89.66;94352.00;5094822;28;20476;-80
2021/12/27 07:10:06;;;;;;;43.40;28.40;;;;;;;8.17;89.13;94332.44;5009713;28;20440;-79
2021/12/27 07:12:34;;;;;;;29.33;19.13;;;;;;;8.14;89.65;94339.72;5094003;28;20493;-79
2021/12/27 07:15:01;;;;;;;28.03;17.63;;;;;;;8.18;90.22;94346.31;5058410;28;20458;-79
2021/12/27 07:17:28;;;;;;;25.63;16.80;;;;;;;8.25;89.86;94350.91;5041731;28;20446;-78
2021/12/27 07:19:55;;;;;;;23.53;18.07;;;;;;;8.27;90.23;94342.94;5094395;28;20428;-78
2021/12/27 07:22:22;;;;;;;28.77;17.37;;;;;;;8.37;90.00;94352.50;5093970;28;20458;-78
2021/12/27 07:24:49;;;;;;;35.83;18.90;;;;;;;8.40;89.35;94348.81;5094446;28;20943;-77
2021/12/27 07:27:16;;;;;;;24.33;15.80;;;;;;;8.50;89.34;94352.31;5058608;28;20809;-79
2021/12/27 07:29:49;;;;;;;25.67;19.07;;;;;;;8.68;89.32;94358.59;5093894;28;20986;-79
2021/12/27 07:32:16;;;;;;;20.53;15.23;;;;;;;8.76;88.13;94338.78;5097566;28;20479;-79
2021/12/27 07:34:43;;;;;;;22.53;16.70;;;;;;;8.75;87.90;94334.50;5098500;28;20432;-79
2021/12/27 07:37:10;;;;;;;33.70;19.80;;;;;;;8.80;88.13;94341.00;5098244;28;20830;-79
2021/12/27 07:39:37;;;;;;;37.83;25.93;;;;;;;8.86;88.03;94345.69;5098250;28;20451;-78
2021/12/27 07:42:05;;;;;;;33.57;22.90;;;;;;;9.00;88.30;94342.72;5097979;28;20443;-79
2021/12/27 07:44:32;;;;;;;37.17;22.07;;;;;;;9.07;88.07;94344.78;5097881;28;20436;-79
2021/12/27 07:47:00;;;;;;;46.13;26.23;;;;;;;9.13;88.32;94345.06;5096883;28;20558;-79
2021/12/27 07:49:27;;;;;;;38.77;23.23;;;;;;;9.23;88.59;94331.97;5097477;28;20459;-78
2021/12/27 07:51:54;;;;;;;24.80;13.80;;;;;;;9.37;88.71;94338.63;5045213;28;20455;-79
2021/12/27 07:54:21;;;;;;;22.93;11.70;;;;;;;9.63;87.22;94342.38;5096679;28;20490;-79
2021/12/27 07:56:48;;;;;;;12.80;7.67;;;;;;;10.00;84.74;94344.28;5097083;28;20494;-79
2021/12/27 07:59:15;;;;;;;44.17;20.87;;;;;;;10.21;84.76;94350.22;5096738;28;20498;-79
2021/12/27 08:01:42;;;;;;;14.70;7.90;;;;;;;10.40;83.83;94350.16;5097152;28;20455;-79
2021/12/27 08:04:10;;;;;;;7.53;4.93;;;;;;;10.75;80.30;94344.25;5096811;28;20458;-80
2021/12/27 08:06:38;;;;;;;4.73;3.33;;;;;;;10.95;79.36;94350.22;5096758;28;20984;-79
2021/12/27 08:09:06;;;;;;;4.60;3.90;;;;;;;11.28;78.07;94340.13;5096219;28;20454;-80
2021/12/27 08:11:32;;;;;;;4.87;2.93;;;;;;;11.70;74.82;94341.19;5096295;28;20447;-79
2021/12/27 08:14:00;;;;;;;6.67;3.67;;;;;;;11.86;74.41;94330.03;5060721;28;21010;-79
2021/12/27 08:16:27;;;;;;;7.87;5.80;;;;;;;11.99;73.77;94327.84;5096520;28;20533;-79
2021/12/27 08:18:54;;;;;;;10.53;5.40;;;;;;;12.17;73.03;94335.72;5096995;28;20503;-79
2021/12/27 08:21:24;;;;;;;2.60;2.40;;;;;;;12.37;71.35;94325.78;5096778;28;20455;-78
2021/12/27 08:23:52;;;;;;;3.80;2.03;;;;;;;12.53;70.00;94339.06;5045045;28;20446;-80
2021/12/27 08:26:19;;;;;;;3.90;3.50;;;;;;;12.59;69.97;94333.16;5096235;28;20446;-79
2021/12/27 08:28:48;;;;;;;3.70;3.33;;;;;;;12.56;70.92;94327.41;5096647;28;20480;-79
2021/12/27 08:31:15;;;;;;;3.63;2.63;;;;;;;12.54;70.73;94324.94;5096333;28;20448;-79
2021/12/27 08:33:42;;;;;;;9.40;5.90;;;;;;;12.62;70.11;94338.13;5095653;28;20492;-80
2021/12/27 08:36:09;;;;;;;6.27;4.80;;;;;;;12.73;69.64;94334.41;5096277;28;20566;-79
2021/12/27 08:38:38;;;;;;;4.13;3.83;;;;;;;12.79;69.52;94325.88;5096134;28;20447;-79
2021/12/27 08:41:05;;;;;;;9.10;6.20;;;;;;;12.84;68.87;94325.41;5096101;28;21034;-79
2021/12/27 08:43:32;;;;;;;5.00;3.57;;;;;;;12.85;69.75;94337.59;5096464;28;20885;-80
2021/12/27 08:45:59;;;;;;;4.43;3.50;;;;;;;12.86;69.13;94326.06;5095724;28;20453;-79
2021/12/27 08:48:27;;;;;;;10.20;6.47;;;;;;;12.91;69.64;94343.03;5095337;28;20456;-80
2021/12/27 08:50:57;;;;;;;16.27;7.87;;;;;;;12.83;69.93;94337.75;5095934;28;20448;-80
2021/12/27 08:53:24;;;;;;;6.00;3.17;;;;;;;12.83;69.80;94340.38;5095858;28;20483;-80
2021/12/27 08:55:52;;;;;;;6.77;5.50;;;;;;;12.83;70.17;94335.13;5095863;28;20470;-80
2021/12/27 08:58:19;;;;;;;6.07;4.83;;;;;;;12.82;70.75;94315.03;5095162;28;20436;-79
2021/12/27 09:00:46;;;;;;;3.40;3.20;;;;;;;12.88;69.76;94313.56;5095536;28;20461;-79
2021/12/27 09:03:13;;;;;;;10.63;8.57;;;;;;;12.85;70.38;94306.81;5095426;28;20450;-79
2021/12/27 09:05:40;;;;;;;7.80;6.50;;;;;;;12.87;69.86;94310.13;5095797;28;20448;-79
2021/12/27 09:08:08;;;;;;;7.23;4.20;;;;;;;12.94;69.60;94305.84;5095250;28;20864;-80
2021/12/27 09:10:35;;;;;;;3.07;2.83;;;;;;;12.97;69.17;94321.34;5043891;28;20438;-78
2021/12/27 09:13:04;;;;;;;4.90;3.80;;;;;;;13.02;69.26;94305.09;5095448;28;20491;-78
2021/12/27 09:15:31;;;;;;;3.77;3.43;;;;;;;13.00;68.87;94315.75;5095035;28;20919;-79
2021/12/27 09:17:58;;;;;;;4.27;3.87;;;;;;;13.00;69.12;94292.06;5095189;28;21133;-79
2021/12/27 09:20:27;;;;;;;2.60;1.90;;;;;;;12.93;69.13;94287.59;5058968;28;20453;-79
2021/12/27 09:22:54;;;;;;;3.03;2.73;;;;;;;13.00;69.20;94299.94;5095147;28;20530;-78
2021/12/27 09:25:24;;;;;;;4.20;3.80;;;;;;;13.05;68.84;94296.03;5095317;28;20468;-79
2021/12/27 09:27:51;;;;;;;4.23;3.60;;;;;;;13.11;68.63;94274.31;5095705;28;20431;-79
2021/12/27 09:30:25;;;;;;;3.13;2.87;;;;;;;13.15;67.84;94271.19;5095543;28;20451;-79
2021/12/27 09:32:52;;;;;;;4.73;2.57;;;;;;;13.20;67.72;94252.31;5095048;28;20486;-80
2021/12/27 09:35:19;;;;;;;3.40;2.30;;;;;;;13.20;67.47;94255.75;5095339;28;20452;-79
2021/12/27 09:37:46;;;;;;;2.90;2.23;;;;;;;13.32;67.47;94243.13;5094796;28;20457;-79
2021/12/27 09:40:13;;;;;;;6.07;2.80;;;;;;;13.37;67.62;94243.44;5095483;28;20443;-79
2021/12/27 09:42:40;;;;;;;3.43;3.13;;;;;;;13.33;66.71;94237.69;5095032;28;20446;-78
2021/12/27 09:45:09;;;;;;;14.07;7.47;;;;;;;13.46;66.53;94247.75;5095049;28;20452;-79
2021/12/27 09:47:38;;;;;;;3.63;2.60;;;;;;;13.49;65.58;94247.41;5042549;28;20460;-79
2021/12/27 09:50:08;;;;;;;6.37;5.77;;;;;;;13.54;65.75;94249.53;5094593;28;20458;-79
2021/12/27 09:52:35;;;;;;;23.83;16.40;;;;;;;13.64;66.03;94239.69;5094480;28;20456;-79
2021/12/27 09:55:04;;;;;;;23.70;16.70;;;;;;;13.60;65.51;94233.94;5094362;28;20475;-79
2021/12/27 09:57:31;;;;;;;10.13;7.70;;;;;;;13.68;65.56;94242.81;5095263;28;20451;-79
2021/12/27 09:59:59;;;;;;;10.50;9.40;;;;;;;13.81;65.44;94243.94;5094850;28;20856;-81
2021/12/27 10:02:28;;;;;;;10.60;8.17;;;;;;;13.86;65.17;94240.81;5045225;28;20535;-80
2021/12/27 10:04:56;;;;;;;5.50;5.00;;;;;;;13.84;65.36;94242.78;5095813;28;20474;-79
2021/12/27 10:07:23;;;;;;;4.57;2.33;;;;;;;13.81;64.94;94232.59;5095443;28;20438;-81
2021/12/27 10:09:54;;;;;;;8.23;4.60;;;;;;;13.74;65.53;94237.69;5095293;28;21037;-81
2021/12/27 10:12:23;;;;;;;9.27;4.70;;;;;;;13.83;65.98;94238.50;5095379;28;20439;-80
2021/12/27 10:14:56;;;;;;;6.00;4.67;;;;;;;13.95;66.30;94242.47;5094438;28;20512;-81
2021/12/27 10:17:23;;;;;;;9.53;5.57;;;;;;;13.97;65.79;94232.59;5095086;28;20441;-80
2021/12/27 10:19:56;;;;;;;8.70;5.00;;;;;;;14.00;65.88;94245.44;5043250;28;20440;-82
2021/12/27 10:22:25;;;;;;;15.40;10.67;;;;;;;14.06;65.25;94242.13;5094747;28;20432;-81
2021/12/27 10:24:52;;;;;;;15.97;12.10;;;;;;;14.11;65.17;94237.16;5043084;28;20461;-81
2021/12/27 10:27:20;;;;;;;6.33;5.07;;;;;;;14.10;64.86;94235.50;5095274;28;20517;-81
2021/12/27 10:29:47;;;;;;;4.00;3.27;;;;;;;14.13;64.00;94229.06;5094564;28;20451;-81
2021/12/27 10:32:16;;;;;;;13.40;5.83;;;;;;;14.14;65.10;94228.91;5094529;28;20776;-80
2021/12/27 10:34:47;;;;;;;6.30;4.93;;;;;;;13.98;65.27;94228.94;5094415;28;20985;-81
2021/12/27 10:37:22;;;;;;;12.93;11.60;;;;;;;14.07;64.51;94225.31;5095844;28;20451;-81
2021/12/27 10:39:53;;;;;;;6.07;5.47;;;;;;;13.93;64.64;94215.44;5115307;28;20439;-79
2021/12/27 10:42:23;;;;;;;5.87;4.50;;;;;;;13.98;64.82;94221.03;5115060;28;20439;-79
2021/12/27 10:44:53;;;;;;;12.20;7.17;;;;;;;13.92;65.26;94203.25;5114568;28;20799;-81
2021/12/27 10:47:35;;;;;;;12.73;7.83;;;;;;;13.93;65.25;94203.09;5114670;28;20427;-81
2021/12/27 10:50:06;;;;;;;17.40;12.33;;;;;;;13.86;66.32;94180.16;5114811;28;20774;-79
2021/12/27 10:52:48;;;;;;;12.53;9.03;;;;;;;13.78;65.79;94196.00;5114965;28;20427;-79
2021/12/27 10:55:18;;;;;;;10.03;5.70;;;;;;;13.77;65.67;94186.44;5114553;28;20491;-79
2021/12/27 10:57:45;;;;;;;8.57;3.80;;;;;;;13.88;65.02;94180.84;5062577;28;20801;-80
2021/12/27 11:00:22;;;;;;;10.83;6.77;;;;;;;13.97;64.98;94187.75;5114753;28;20200;-81
2021/12/27 11:02:49;;;;;;;2.83;1.90;;;;;;;14.06;62.97;94194.63;5114480;28;20438;-79
2021/12/27 11:05:17;;;;;;;4.17;2.70;;;;;;;14.18;62.45;94176.66;5113409;28;20446;-81
2021/12/27 11:07:46;;;;;;;9.70;4.30;;;;;;;14.24;62.71;94189.97;5114608;28;20801;-80
2021/12/27 11:10:13;;;;;;;7.70;4.40;;;;;;;14.31;62.09;94182.22;5114816;28;20518;-81
2021/12/27 11:12:41;;;;;;;11.90;7.17;;;;;;;14.30;62.89;94180.56;5114578;28;20423;-79
2021/12/27 11:15:10;;;;;;;7.13;5.63;;;;;;;14.46;62.41;94193.75;5062020;28;20481;-79
2021/12/27 11:21:00;;;;;;;2.63;2.43;;;;;;;14.70;62.84;94195.44;5114086;28;20769;-81
2021/12/27 11:23:30;;;;;;;3.13;1.57;;;;;;;14.73;60.20;94189.81;5114720;28;20453;-80
2021/12/27 11:26:02;;;;;;;2.30;1.83;;;;;;;14.66;60.50;94182.75;5114469;28;20443;-79
2021/12/27 11:28:34;;;;;;;2.03;1.67;;;;;;;14.60;60.41;94173.72;5114331;28;20512;-78
2021/12/27 11:31:04;;;;;;;2.53;2.10;;;;;;;14.50;60.56;94163.38;5113936;28;20439;-79
2021/12/27 11:33:33;;;;;;;2.80;2.03;;;;;;;14.43;60.86;94180.03;5114938;28;20478;-79